TimeEST,TemperatureF,Dew PointF,Humidity,Sea Level PressureIn,VisibilityMPH,Wind Direction,Wind SpeedMPH,Gust SpeedMPH,PrecipitationIn,Events,Conditions,WindDirDegrees,DateUTC
12:53 AM,66.0,63.0,90,30.11,10.0,SSE,10.4,-,N/A,,Mostly Cloudy,150,2011-12-21 05:53:00
1:53 AM,64.9,63.0,93,30.10,10.0,SSE,10.4,-,N/A,,Clear,160,2011-12-21 06:53:00
2:53 AM,64.0,62.1,93,30.11,10.0,South,9.2,-,N/A,,Clear,180,2011-12-21 07:53:00
3:53 AM,64.0,62.1,93,30.11,10.0,South,9.2,-,N/A,,Clear,180,2011-12-21 08:53:00
4:53 AM,64.9,62.1,90,30.09,10.0,SSE,11.5,-,N/A,,Clear,160,2011-12-21 09:53:00
5:53 AM,64.0,62.1,93,30.10,10.0,SSE,9.2,-,N/A,,Clear,160,2011-12-21 10:53:00
6:53 AM,64.0,62.1,93,30.11,10.0,South,15.0,-,N/A,,Clear,170,2011-12-21 11:53:00
7:53 AM,64.0,62.1,93,30.11,10.0,SSE,12.7,-,N/A,,Clear,160,2011-12-21 12:53:00
8:53 AM,66.9,63.0,87,30.14,10.0,South,10.4,-,N/A,,Clear,170,2011-12-21 13:53:00
9:53 AM,69.1,64.0,84,30.15,10.0,South,9.2,-,N/A,,Clear,170,2011-12-21 14:53:00
10:53 AM,73.0,64.0,73,30.14,10.0,South,10.4,-,N/A,,Clear,180,2011-12-21 15:53:00
11:53 AM,75.0,64.0,69,30.12,10.0,South,10.4,-,N/A,,Clear,180,2011-12-21 16:53:00
1:53 PM,77.0,62.1,60,30.06,10.0,SSW,9.2,-,N/A,,Clear,210,2011-12-21 18:53:00
2:53 PM,77.0,61.0,58,30.05,10.0,SW,10.4,-,N/A,,Clear,230,2011-12-21 19:53:00
3:53 PM,75.9,61.0,60,30.06,10.0,SW,16.1,21.9,N/A,,Clear,220,2011-12-21 20:53:00
4:53 PM,75.0,62.1,64,30.06,10.0,SW,16.1,23.0,N/A,,Clear,220,2011-12-21 21:53:00
5:53 PM,73.0,62.1,68,30.07,10.0,SW,10.4,-,N/A,,Clear,220,2011-12-21 22:53:00
6:53 PM,71.1,63.0,75,30.07,10.0,SW,8.1,-,N/A,,Clear,220,2011-12-21 23:53:00
7:53 PM,70.0,63.0,78,30.08,10.0,SW,6.9,-,N/A,,Clear,220,2011-12-22 00:53:00
8:53 PM,69.1,64.0,84,30.09,10.0,SW,5.8,-,N/A,,Clear,220,2011-12-22 01:53:00
9:53 PM,68.0,64.0,87,30.09,10.0,SSW,5.8,-,N/A,,Clear,200,2011-12-22 02:53:00
10:53 PM,66.9,64.0,90,30.10,10.0,South,5.8,-,N/A,,Clear,170,2011-12-22 03:53:00
11:53 PM,66.0,64.0,93,30.09,10.0,South,4.6,-,N/A,,Clear,170,2011-12-22 04:53:00